ADDS METAR Data INFO
IDs: Format: Raw Decoded Include TAF

Data at: 2035 UTC 20 Jul 2018

METAR for:KDRT (Del Rio Intl, TX, US)
Text:KDRT 201953Z AUTO 18009G19KT 140V210 10SM CLR 39/16 A2989 RMK AO2 SLP102 T03890161 $
Temperature: 38.9°C (102°F)
Dewpoint: 16.1°C ( 61°F) [RH = 26%]
Pressure (altimeter):29.89 inches Hg (1012.3 mb) [Sea level pressure: 1010.2 mb]
Winds:from the S (180 degrees) at 10 MPH (9 knots; 4.6 m/s) gusting to 22 MPH (19 knots; 9.8 m/s)
Visibility:10 or more sm (16+ km)
Ceiling:at least 12,000 feet AGL
Clouds:sky clear below 12,000 feet AGL
QC Flag:automated observation with no human augmentation; SOME DATA ABOVE MAY BE INACCURATE!!!"$" is an indication the sensor requires maintenance.